createdAt,value
2022-08-29T00:01:55.669Z,100.00
2022-08-29T00:04:57.156Z,100.00
2022-08-29T00:08:01.138Z,100.00
2022-08-29T00:11:02.963Z,100.00
2022-08-29T00:14:04.472Z,100.00
2022-08-29T00:17:05.896Z,100.00
2022-08-29T00:20:13.521Z,100.00
2022-08-29T00:23:15.347Z,100.00
2022-08-29T00:26:16.899Z,100.00
2022-08-29T00:29:18.410Z,100.00
2022-08-29T00:32:19.864Z,100.00
2022-08-29T00:35:27.461Z,100.00
2022-08-29T00:38:28.934Z,100.00
2022-08-29T00:41:30.421Z,100.00
2022-08-29T00:44:32.149Z,100.00
2022-08-29T00:47:37.325Z,100.00
2022-08-29T00:50:43.539Z,100.00
2022-08-29T00:53:48.021Z,100.00
2022-08-29T00:56:52.217Z,100.00
2022-08-29T00:59:53.988Z,100.00
2022-08-29T01:02:55.490Z,100.00
2022-08-29T01:05:57.088Z,100.00
2022-08-29T01:08:59.335Z,100.00
2022-08-29T01:12:16.176Z,100.00
2022-08-29T01:15:18.022Z,100.00
2022-08-29T01:18:22.881Z,100.00
2022-08-29T01:21:47.342Z,100.00
2022-08-29T01:24:52.327Z,100.00
2022-08-29T01:28:09.698Z,100.00
2022-08-29T01:31:37.693Z,100.00
2022-08-29T01:34:40.065Z,100.00
2022-08-29T01:37:43.290Z,100.00
2022-08-29T01:40:44.747Z,100.00
2022-08-29T01:43:51.877Z,100.00
2022-08-29T01:47:01.791Z,100.00
2022-08-29T01:50:08.633Z,100.00
2022-08-29T01:53:10.217Z,100.00
2022-08-29T01:56:25.725Z,100.00
2022-08-29T01:59:28.757Z,100.00
2022-08-29T02:02:30.368Z,100.00
2022-08-29T02:05:31.854Z,100.00
2022-08-29T02:08:33.339Z,100.00
2022-08-29T02:11:39.611Z,100.00
2022-08-29T02:14:41.119Z,100.00
2022-08-29T02:17:42.535Z,100.00
2022-08-29T02:20:45.346Z,100.00
2022-08-29T02:23:49.867Z,100.00
2022-08-29T02:26:51.524Z,100.00
2022-08-29T02:29:53.031Z,100.00
2022-08-29T02:32:54.860Z,100.00
2022-08-29T02:35:56.446Z,100.00
2022-08-29T02:38:59.014Z,100.00
2022-08-29T02:42:00.751Z,100.00
2022-08-29T02:45:02.647Z,100.00
2022-08-29T02:48:04.762Z,100.00
2022-08-29T02:51:06.587Z,100.00
2022-08-29T02:54:08.102Z,100.00
2022-08-29T02:57:09.647Z,100.00
2022-08-29T03:00:16.433Z,100.00
2022-08-29T03:03:18.174Z,100.00
2022-08-29T03:06:20.056Z,100.00
2022-08-29T03:09:21.564Z,100.00
2022-08-29T03:12:23.582Z,100.00
2022-08-29T03:15:25.681Z,100.00
2022-08-29T03:18:27.207Z,100.00
2022-08-29T03:21:28.655Z,100.00
2022-08-29T03:24:30.187Z,100.00
2022-08-29T03:27:32.847Z,100.00
2022-08-29T03:30:35.135Z,100.00
2022-08-29T03:33:37.165Z,100.00
2022-08-29T03:36:39.372Z,100.00
2022-08-29T03:39:41.053Z,100.00
2022-08-29T03:42:42.970Z,100.00
2022-08-29T03:45:44.747Z,100.00
2022-08-29T03:48:46.187Z,100.00
2022-08-29T03:51:49.938Z,100.00
2022-08-29T03:54:51.426Z,100.00
2022-08-29T03:57:55.061Z,100.00
2022-08-29T04:00:56.531Z,100.00
2022-08-29T04:03:58.602Z,100.00
2022-08-29T04:07:01.380Z,100.00
2022-08-29T04:10:05.283Z,100.00
2022-08-29T04:13:09.222Z,100.00
2022-08-29T04:16:13.586Z,100.00
2022-08-29T04:19:15.441Z,100.00
2022-08-29T04:22:16.860Z,100.00
2022-08-29T04:25:18.391Z,100.00
2022-08-29T04:28:19.943Z,100.00
2022-08-29T04:31:22.159Z,100.00
2022-08-29T04:34:23.656Z,100.00
2022-08-29T04:37:25.148Z,100.00
2022-08-29T04:40:27.042Z,100.00
2022-08-29T04:43:28.533Z,100.00
2022-08-29T04:46:30.736Z,100.00
2022-08-29T04:49:32.330Z,100.00
2022-08-29T04:52:33.795Z,100.00
2022-08-29T04:55:35.242Z,100.00
2022-08-29T04:58:42.268Z,100.00
2022-08-29T05:01:45.919Z,100.00
2022-08-29T05:04:52.398Z,100.00
2022-08-29T05:07:53.959Z,100.00
2022-08-29T05:10:55.878Z,100.00
2022-08-29T05:13:58.765Z,100.00
2022-08-29T05:17:00.230Z,100.00
2022-08-29T05:20:02.502Z,100.00
2022-08-29T05:23:03.948Z,100.00
2022-08-29T05:26:05.649Z,100.00
2022-08-29T05:29:09.373Z,100.00
2022-08-29T05:32:14.559Z,100.00
2022-08-29T05:35:16.010Z,100.00
2022-08-29T05:38:18.010Z,100.00
2022-08-29T05:41:19.556Z,100.00
2022-08-29T05:44:21.250Z,100.00
2022-08-29T05:47:22.893Z,100.00
2022-08-29T05:50:24.332Z,100.00
2022-08-29T05:53:26.779Z,100.00
2022-08-29T05:56:30.274Z,100.00
2022-08-29T05:59:31.737Z,100.00
2022-08-29T06:02:33.966Z,100.00
2022-08-29T06:05:35.724Z,100.00
2022-08-29T06:08:37.179Z,100.00
2022-08-29T06:11:39.181Z,100.00
2022-08-29T06:14:41.592Z,100.00
2022-08-29T06:17:51.812Z,100.00
2022-08-29T06:20:53.256Z,100.00
2022-08-29T06:23:54.984Z,100.00
2022-08-29T06:26:56.711Z,100.00
2022-08-29T06:30:01.744Z,100.00
2022-08-29T06:33:03.648Z,100.00
2022-08-29T06:36:07.434Z,100.00
2022-08-29T06:39:11.391Z,100.00
2022-08-29T06:42:12.838Z,100.00
2022-08-29T06:45:14.369Z,100.00
2022-08-29T06:48:15.927Z,100.00
2022-08-29T06:51:17.590Z,100.00
2022-08-29T06:54:22.004Z,100.00
2022-08-29T06:57:23.442Z,100.00
2022-08-29T07:00:25.004Z,100.00
2022-08-29T07:03:27.095Z,100.00
2022-08-29T07:06:29.388Z,100.00
2022-08-29T07:09:32.265Z,100.00
2022-08-29T07:12:33.816Z,100.00
2022-08-29T07:15:35.332Z,100.00
2022-08-29T07:18:37.736Z,100.00
2022-08-29T07:21:39.784Z,100.00
2022-08-29T07:24:41.308Z,100.00
2022-08-29T07:27:42.759Z,100.00
2022-08-29T07:30:44.358Z,100.00
2022-08-29T07:33:46.206Z,100.00
2022-08-29T07:36:48.067Z,100.00
2022-08-29T07:39:49.534Z,100.00
2022-08-29T07:42:51.056Z,100.00
2022-08-29T07:45:53.069Z,100.00
2022-08-29T07:48:54.950Z,100.00
2022-08-29T07:51:56.460Z,100.00
2022-08-29T07:54:57.969Z,100.00
2022-08-29T07:57:59.485Z,100.00
2022-08-29T08:01:01.033Z,100.00
2022-08-29T08:04:03.176Z,100.00
2022-08-29T08:07:04.980Z,98.68
2022-08-29T08:10:17.463Z,97.80
2022-08-29T08:13:19.612Z,97.06
2022-08-29T08:16:23.545Z,96.12
2022-08-29T08:19:25.329Z,96.73
2022-08-29T08:22:26.823Z,94.54
2022-08-29T08:25:28.342Z,93.94
2022-08-29T08:28:30.642Z,95.67
2022-08-29T08:31:32.315Z,93.47
2022-08-29T08:34:35.754Z,99.22
2022-08-29T08:37:37.506Z,95.84
2022-08-29T08:41:17.792Z,92.81
2022-08-29T08:44:22.381Z,98.52
2022-08-29T08:47:33.370Z,91.39
2022-08-29T08:51:03.288Z,91.55
2022-08-29T08:54:12.372Z,86.98
2022-08-29T08:57:14.477Z,88.18
2022-08-29T09:00:16.008Z,87.94
2022-08-29T09:03:56.027Z,87.58
2022-08-29T09:07:00.707Z,88.38
2022-08-29T09:10:11.341Z,85.78
2022-08-29T09:13:40.314Z,83.97
2022-08-29T09:16:49.312Z,85.18
2022-08-29T09:19:51.832Z,83.83
2022-08-29T09:23:01.437Z,82.65
2022-08-29T09:26:02.886Z,82.74
2022-08-29T09:29:09.077Z,81.27
2022-08-29T09:32:16.508Z,83.69
2022-08-29T09:35:24.752Z,82.30
2022-08-29T09:38:28.063Z,83.38
2022-08-29T09:41:30.801Z,85.04
2022-08-29T09:44:35.219Z,82.60
2022-08-29T09:47:36.855Z,79.54
2022-08-29T09:50:38.389Z,81.84
2022-08-29T09:53:40.146Z,85.70
2022-08-29T09:56:55.502Z,80.78
2022-08-29T10:00:16.003Z,79.74
2022-08-29T10:03:22.604Z,78.38
2022-08-29T10:06:28.836Z,81.72
2022-08-29T10:09:30.373Z,75.77
2022-08-29T10:12:40.143Z,74.97
2022-08-29T10:15:58.421Z,69.91
2022-08-29T10:19:10.084Z,70.73
2022-08-29T10:22:25.369Z,65.15
2022-08-29T10:25:35.548Z,62.60
2022-08-29T10:28:44.180Z,60.54
2022-08-29T10:31:53.390Z,59.39
2022-08-29T10:35:12.412Z,61.85
2022-08-29T10:38:44.276Z,60.10
2022-08-29T10:41:56.687Z,59.35
2022-08-29T10:45:06.948Z,56.08
2022-08-29T10:48:30.429Z,65.83
2022-08-29T10:51:43.513Z,54.22
2022-08-29T10:55:00.244Z,56.67
2022-08-29T10:58:35.956Z,52.44
2022-08-29T11:01:45.566Z,51.80
2022-08-29T11:04:56.945Z,48.63
2022-08-29T11:08:09.625Z,45.32
2022-08-29T11:11:17.221Z,50.25
2022-08-29T11:14:26.644Z,44.70
2022-08-29T11:17:35.835Z,44.18
2022-08-29T11:20:45.281Z,47.15
2022-08-29T11:23:48.144Z,43.94
2022-08-29T11:27:11.894Z,49.82
2022-08-29T11:30:22.971Z,46.32
2022-08-29T11:33:45.768Z,47.84
2022-08-29T11:37:21.443Z,45.44
2022-08-29T11:41:26.344Z,44.37
2022-08-29T11:44:29.542Z,43.33
2022-08-29T11:47:46.429Z,42.30
2022-08-29T11:50:49.135Z,42.63
2022-08-29T11:53:50.909Z,43.00
2022-08-29T11:57:12.561Z,44.37
2022-08-29T12:00:32.496Z,44.49
2022-08-29T12:03:34.473Z,41.34
2022-08-29T12:07:01.340Z,44.73
2022-08-29T12:10:23.946Z,41.58
2022-08-29T12:13:44.045Z,43.21
2022-08-29T12:16:51.169Z,43.27
2022-08-29T12:19:54.189Z,43.05
2022-08-29T12:23:01.443Z,43.00
2022-08-29T12:26:22.851Z,41.70
2022-08-29T12:29:41.098Z,42.83
2022-08-29T12:33:12.182Z,41.39
2022-08-29T12:37:13.486Z,43.26
2022-08-29T12:40:40.655Z,41.34
2022-08-29T12:43:46.713Z,44.01
2022-08-29T12:46:51.570Z,42.39
2022-08-29T12:50:00.981Z,39.13
2022-08-29T12:53:20.430Z,39.09
2022-08-29T12:56:23.278Z,40.48
2022-08-29T12:59:24.843Z,41.89
2022-08-29T13:02:37.398Z,40.13
2022-08-29T13:05:40.490Z,38.21
2022-08-29T13:08:42.602Z,39.10
2022-08-29T13:11:44.006Z,39.26
2022-08-29T13:14:51.315Z,38.12
2022-08-29T13:17:53.676Z,40.87
2022-08-29T13:21:10.856Z,38.99
2022-08-29T13:24:20.746Z,38.98
2022-08-29T13:27:22.284Z,38.34
2022-08-29T13:30:24.790Z,37.07
2022-08-29T13:33:35.594Z,39.36
2022-08-29T13:36:47.497Z,38.30
2022-08-29T13:39:49.028Z,38.01
2022-08-29T13:42:50.614Z,37.66
2022-08-29T13:46:15.121Z,36.92
2022-08-29T13:49:22.556Z,37.40
2022-08-29T13:52:24.236Z,38.81
2022-08-29T13:55:34.548Z,36.86
2022-08-29T13:58:36.017Z,38.25
2022-08-29T14:04:59.850Z,36.23
2022-08-29T14:08:01.419Z,36.19
2022-08-29T14:11:02.908Z,35.94
2022-08-29T14:14:07.868Z,37.12
2022-08-29T14:17:10.046Z,36.31
2022-08-29T14:20:18.797Z,35.37
2022-08-29T14:23:23.241Z,35.57
2022-08-29T14:26:25.660Z,38.36
2022-08-29T14:29:27.428Z,38.25
2022-08-29T14:32:32.346Z,36.87
2022-08-29T14:35:34.879Z,35.86
2022-08-29T14:38:36.410Z,36.02
2022-08-29T14:41:37.889Z,36.63
2022-08-29T14:44:39.411Z,35.78
2022-08-29T14:47:40.999Z,35.96
2022-08-29T14:50:42.471Z,37.15
2022-08-29T14:53:48.289Z,35.11
2022-08-29T14:56:55.612Z,36.25
2022-08-29T14:59:57.188Z,34.91
2022-08-29T15:02:59.961Z,35.78
2022-08-29T15:06:02.649Z,36.19
2022-08-29T15:09:04.310Z,34.15
2022-08-29T15:12:06.230Z,36.29
2022-08-29T15:15:08.716Z,36.20
2022-08-29T15:18:23.510Z,34.84
2022-08-29T15:21:32.423Z,36.64
2022-08-29T15:24:34.024Z,37.14
2022-08-29T15:27:35.483Z,35.70
2022-08-29T15:30:37.124Z,35.77
2022-08-29T15:33:39.801Z,35.29
2022-08-29T15:36:41.212Z,36.67
2022-08-29T15:39:42.732Z,35.26
2022-08-29T15:42:45.229Z,34.49
2022-08-29T15:45:46.729Z,35.59
2022-08-29T15:48:48.289Z,37.07
2022-08-29T15:51:53.040Z,34.84
2022-08-29T15:54:54.877Z,36.10
2022-08-29T15:57:56.321Z,37.09
2022-08-29T16:00:58.571Z,38.28
2022-08-29T16:04:00.065Z,38.06
2022-08-29T16:07:01.847Z,36.12
2022-08-29T16:10:04.918Z,36.23
2022-08-29T16:13:12.757Z,37.16
2022-08-29T16:16:14.885Z,36.03
2022-08-29T16:19:17.384Z,37.18
2022-08-29T16:22:18.940Z,35.75
2022-08-29T16:25:21.373Z,37.32
2022-08-29T16:28:25.672Z,37.54
2022-08-29T16:31:27.337Z,37.09
2022-08-29T16:34:29.615Z,37.08
2022-08-29T16:37:31.165Z,36.45
2022-08-29T16:40:32.967Z,36.20
2022-08-29T16:43:36.866Z,36.79
2022-08-29T16:46:38.523Z,36.30
2022-08-29T16:49:40.248Z,36.09
2022-08-29T16:52:41.840Z,36.25
2022-08-29T16:55:43.455Z,36.48
2022-08-29T16:58:59.488Z,36.02
2022-08-29T17:02:01.009Z,36.82
2022-08-29T17:05:03.389Z,35.63
2022-08-29T17:08:04.951Z,36.31
2022-08-29T17:11:07.250Z,36.54
2022-08-29T17:14:09.602Z,35.94
2022-08-29T17:17:12.589Z,36.51
2022-08-29T17:20:14.923Z,36.97
2022-08-29T17:23:16.513Z,36.61
2022-08-29T17:26:18.304Z,37.24
2022-08-29T17:29:19.783Z,36.97
2022-08-29T17:32:21.260Z,37.43
2022-08-29T17:35:22.770Z,36.22
2022-08-29T17:38:25.139Z,37.14
2022-08-29T17:41:27.689Z,37.45
2022-08-29T17:44:32.917Z,37.29
2022-08-29T17:47:34.451Z,38.20
2022-08-29T17:50:36.246Z,37.66
2022-08-29T17:53:39.579Z,37.68
2022-08-29T17:56:48.753Z,39.07
2022-08-29T17:59:50.206Z,38.16
2022-08-29T18:02:52.463Z,39.02
2022-08-29T18:05:53.923Z,38.78
2022-08-29T18:08:55.403Z,39.06
2022-08-29T18:12:00.490Z,40.17
2022-08-29T18:15:03.622Z,39.95
2022-08-29T18:18:05.379Z,39.59
2022-08-29T18:21:06.976Z,39.92
2022-08-29T18:24:11.069Z,40.75
2022-08-29T18:27:12.544Z,41.28
2022-08-29T18:30:15.379Z,40.68
2022-08-29T18:33:16.888Z,41.46
2022-08-29T18:36:19.852Z,41.18
2022-08-29T18:39:21.402Z,43.25
2022-08-29T18:42:39.535Z,43.28
2022-08-29T18:45:42.952Z,43.99
2022-08-29T18:48:44.889Z,43.21
2022-08-29T18:51:46.854Z,44.31
2022-08-29T18:54:48.397Z,44.97
2022-08-29T18:57:50.395Z,43.85
2022-08-29T19:00:52.601Z,46.70
2022-08-29T19:03:58.966Z,48.85
2022-08-29T19:07:00.397Z,45.98
2022-08-29T19:10:01.859Z,47.12
2022-08-29T19:13:07.497Z,47.49
2022-08-29T19:16:09.864Z,48.84
2022-08-29T19:19:13.280Z,50.41
2022-08-29T19:22:15.913Z,49.58
2022-08-29T19:25:17.513Z,49.76
2022-08-29T19:28:19.783Z,53.57
2022-08-29T19:31:22.761Z,51.81
2022-08-29T19:34:24.332Z,53.97
2022-08-29T19:37:26.487Z,55.92
2022-08-29T19:40:28.450Z,52.73
2022-08-29T19:43:33.439Z,54.53
2022-08-29T19:46:36.029Z,53.57
2022-08-29T19:49:40.104Z,53.00
2022-08-29T19:52:43.638Z,53.55
2022-08-29T19:55:45.428Z,57.90
2022-08-29T19:58:46.994Z,56.85
2022-08-29T20:01:51.058Z,56.36
2022-08-29T20:04:52.909Z,61.79
2022-08-29T20:07:54.438Z,57.58
2022-08-29T20:10:56.030Z,58.41
2022-08-29T20:13:58.092Z,56.00
2022-08-29T20:16:59.587Z,58.56
2022-08-29T20:20:01.300Z,56.41
2022-08-29T20:23:04.323Z,55.03
2022-08-29T20:26:06.920Z,54.13
2022-08-29T20:29:10.546Z,53.67
2022-08-29T20:32:12.114Z,52.59
2022-08-29T20:35:13.631Z,52.79
2022-08-29T20:38:15.402Z,57.79
2022-08-29T20:41:17.148Z,57.07
2022-08-29T20:44:24.989Z,59.21
2022-08-29T20:47:27.260Z,58.54
2022-08-29T20:53:33.469Z,62.91
2022-08-29T20:56:35.150Z,57.23
2022-08-29T20:59:41.038Z,63.27
2022-08-29T21:03:01.152Z,59.86
2022-08-29T21:06:03.608Z,60.95
2022-08-29T21:09:05.802Z,62.43
2022-08-29T21:12:07.980Z,61.12
2022-08-29T21:15:09.537Z,62.03
2022-08-29T21:18:12.869Z,57.91
2022-08-29T21:21:14.384Z,58.46
2022-08-29T21:24:15.905Z,57.98
2022-08-29T21:27:18.035Z,60.30
2022-08-29T21:30:19.806Z,62.61
2022-08-29T21:33:21.650Z,63.92
2022-08-29T21:36:26.008Z,60.01
2022-08-29T21:39:28.444Z,62.68
2022-08-29T21:42:30.477Z,64.50
2022-08-29T21:45:34.227Z,59.06
2022-08-29T21:48:35.661Z,60.77
2022-08-29T21:51:37.718Z,61.59
2022-08-29T21:54:39.359Z,61.71
2022-08-29T21:57:52.899Z,60.77
2022-08-29T22:00:54.303Z,65.50
2022-08-29T22:03:58.754Z,62.66
2022-08-29T22:07:00.262Z,69.05
2022-08-29T22:10:01.794Z,69.84
2022-08-29T22:13:06.557Z,68.66
2022-08-29T22:16:27.184Z,67.66
2022-08-29T22:19:28.700Z,68.66
2022-08-29T22:22:30.160Z,65.89
2022-08-29T22:25:32.109Z,70.68
2022-08-29T22:28:33.543Z,64.80
2022-08-29T22:31:35.188Z,68.00
2022-08-29T22:34:36.739Z,66.16
2022-08-29T22:37:38.175Z,66.02
2022-08-29T22:40:41.054Z,59.14
2022-08-29T22:43:42.787Z,60.77
2022-08-29T22:46:44.809Z,61.99
2022-08-29T22:49:46.482Z,60.50
2022-08-29T22:52:49.015Z,62.94
2022-08-29T22:55:50.484Z,59.69
2022-08-29T22:58:52.328Z,59.81
2022-08-29T23:01:54.175Z,61.11
2022-08-29T23:04:55.814Z,58.27
2022-08-29T23:07:57.256Z,55.34
2022-08-29T23:10:58.710Z,55.01
2022-08-29T23:14:00.218Z,54.56
2022-08-29T23:17:08.125Z,54.01
2022-08-29T23:20:12.625Z,55.90
2022-08-29T23:26:15.696Z,53.60
2022-08-29T23:29:17.149Z,53.94
2022-08-29T23:32:18.634Z,54.20
2022-08-29T23:38:22.872Z,53.11
2022-08-29T23:41:25.357Z,53.26
2022-08-29T23:44:26.917Z,53.59
2022-08-29T23:47:28.475Z,53.59
2022-08-29T23:50:29.990Z,53.86
2022-08-29T23:53:31.602Z,54.17
2022-08-29T23:56:33.150Z,54.52
